Terminal Aerodrome Forecast
Issued by NWS Green Bay, WI

Home | Current Version | Previous Version | Text Only | Print | Product List | Glossary Off
Versions: 1 2 3 4 5 6 7 8 9 10 11 12 13 14 15

000
FTUS43 KGRB 282324
TAFGRB
TAF
KGRB 282324Z 2900/2924 05010KT P6SM VCSH OVC050
     FM290200 05009KT P6SM VCSH OVC045
     FM290700 04008KT P6SM OVC045
     FM291900 05007KT P6SM SCT080=

USA.gov is the U.S. government's official web portal to all federal, state and local government web resources and services.